createdAt,value
2022-09-29T00:00:39.162Z,0.00
2022-09-29T00:01:39.213Z,0.00
2022-09-29T00:02:39.188Z,0.00
2022-09-29T00:03:39.097Z,0.00
2022-09-29T00:04:39.110Z,0.00
2022-09-29T00:05:39.080Z,0.00
2022-09-29T00:06:39.115Z,0.00
2022-09-29T00:07:39.058Z,0.00
2022-09-29T00:08:39.034Z,0.00
2022-09-29T00:09:39.033Z,0.00
2022-09-29T00:10:39.018Z,0.00
2022-09-29T00:11:39.034Z,0.00
2022-09-29T00:12:38.990Z,0.00
2022-09-29T00:13:38.980Z,0.00
2022-09-29T00:14:38.990Z,0.00
2022-09-29T00:15:38.959Z,0.00
2022-09-29T00:16:39.011Z,0.00
2022-09-29T00:17:38.945Z,0.00
2022-09-29T00:18:38.978Z,0.00
2022-09-29T00:19:38.928Z,0.00
2022-09-29T00:20:38.926Z,0.00
2022-09-29T00:21:38.920Z,0.00
2022-09-29T00:22:38.889Z,0.00
2022-09-29T00:23:38.879Z,0.00
2022-09-29T00:24:38.858Z,0.00
2022-09-29T00:25:38.853Z,0.00
2022-09-29T00:26:38.898Z,0.00
2022-09-29T00:27:38.845Z,0.00
2022-09-29T00:28:38.818Z,0.00
2022-09-29T00:29:38.797Z,0.00
2022-09-29T00:30:38.801Z,0.00
2022-09-29T00:31:38.890Z,0.00
2022-09-29T00:32:38.780Z,0.00
2022-09-29T00:33:38.758Z,0.00
2022-09-29T00:34:38.766Z,0.00
2022-09-29T00:35:38.746Z,0.00
2022-09-29T00:36:38.772Z,0.00
2022-09-29T00:37:38.730Z,0.00
2022-09-29T00:38:38.700Z,0.00
2022-09-29T00:39:38.683Z,0.00
2022-09-29T00:40:38.707Z,0.00
2022-09-29T00:41:38.717Z,0.00
2022-09-29T00:42:38.648Z,0.00
2022-09-29T00:43:38.637Z,0.00
2022-09-29T00:44:38.633Z,0.00
2022-09-29T00:45:38.777Z,0.00
2022-09-29T00:46:38.665Z,0.00
2022-09-29T00:47:38.604Z,0.00
2022-09-29T00:48:38.603Z,0.00
2022-09-29T00:49:38.581Z,0.00
2022-09-29T00:50:38.578Z,0.00
2022-09-29T00:51:38.612Z,0.00
2022-09-29T00:52:38.545Z,0.00
2022-09-29T00:53:38.541Z,0.00
2022-09-29T00:54:38.527Z,0.00
2022-09-29T00:55:38.501Z,0.00
2022-09-29T00:56:38.555Z,0.00
2022-09-29T00:57:38.502Z,0.00
2022-09-29T00:58:38.477Z,0.00
2022-09-29T00:59:38.477Z,0.00
2022-09-29T01:00:38.483Z,0.00
2022-09-29T01:01:38.519Z,0.00
2022-09-29T01:02:38.446Z,0.00
2022-09-29T01:03:38.445Z,0.00
2022-09-29T01:04:38.405Z,0.00
2022-09-29T01:05:38.401Z,0.00
2022-09-29T01:06:38.439Z,0.00
2022-09-29T01:07:38.378Z,0.00
2022-09-29T01:08:38.363Z,0.00
2022-09-29T01:09:38.356Z,0.00
2022-09-29T01:10:38.342Z,0.00
2022-09-29T01:11:38.379Z,0.00
2022-09-29T01:12:38.331Z,0.00
2022-09-29T01:13:38.297Z,0.00
2022-09-29T01:14:38.288Z,0.00
2022-09-29T01:15:38.265Z,0.00
2022-09-29T01:16:38.385Z,0.00
2022-09-29T01:17:38.260Z,0.00
2022-09-29T01:18:38.268Z,0.00
2022-09-29T01:19:38.253Z,0.00
2022-09-29T01:20:38.229Z,0.00
2022-09-29T01:21:38.247Z,0.00
2022-09-29T01:22:38.217Z,0.00
2022-09-29T01:23:38.208Z,0.00
2022-09-29T01:24:38.184Z,0.00
2022-09-29T01:25:38.182Z,0.00
2022-09-29T01:26:38.206Z,0.00
2022-09-29T01:27:38.143Z,0.00
2022-09-29T01:28:38.143Z,0.00
2022-09-29T01:29:38.135Z,0.00
2022-09-29T01:30:38.131Z,0.00
2022-09-29T01:31:38.267Z,0.00
2022-09-29T01:32:38.111Z,0.00
2022-09-29T01:33:38.094Z,0.00
2022-09-29T01:34:38.077Z,0.00
2022-09-29T01:35:38.068Z,0.00
2022-09-29T01:36:38.106Z,0.00
2022-09-29T01:37:38.052Z,0.00
2022-09-29T01:38:38.028Z,0.00
2022-09-29T01:39:38.023Z,0.00
2022-09-29T01:40:38.038Z,0.00
2022-09-29T01:41:38.045Z,0.00
2022-09-29T01:42:37.990Z,0.00
2022-09-29T01:43:37.969Z,0.00
2022-09-29T01:44:37.954Z,0.00
2022-09-29T01:45:37.996Z,0.00
2022-09-29T01:46:37.932Z,0.00
2022-09-29T01:47:37.970Z,0.00
2022-09-29T01:48:37.933Z,0.00
2022-09-29T01:49:37.920Z,0.00
2022-09-29T01:50:37.908Z,0.00
2022-09-29T01:51:37.909Z,0.00
2022-09-29T01:52:37.867Z,0.00
2022-09-29T01:53:37.869Z,0.00
2022-09-29T01:54:37.851Z,0.00
2022-09-29T01:55:37.851Z,0.00
2022-09-29T01:56:37.881Z,0.00
2022-09-29T01:57:37.822Z,0.00
2022-09-29T01:58:37.811Z,0.00
2022-09-29T01:59:37.792Z,0.00
2022-09-29T02:00:37.834Z,0.00
2022-09-29T02:01:37.842Z,0.00
2022-09-29T02:02:37.774Z,0.00
2022-09-29T02:03:37.749Z,0.00
2022-09-29T02:04:37.749Z,0.00
2022-09-29T02:05:37.725Z,0.00
2022-09-29T02:06:37.768Z,0.00
2022-09-29T02:07:37.711Z,0.00
2022-09-29T02:08:37.697Z,0.00
2022-09-29T02:09:37.688Z,0.00
2022-09-29T02:10:37.670Z,0.00
2022-09-29T02:11:37.696Z,0.00
2022-09-29T02:12:37.651Z,0.00
2022-09-29T02:13:37.623Z,0.00
2022-09-29T02:14:37.638Z,0.00
2022-09-29T02:15:37.598Z,0.00
2022-09-29T02:16:37.690Z,0.00
2022-09-29T02:17:37.577Z,0.00
2022-09-29T02:18:37.593Z,0.00
2022-09-29T02:19:37.561Z,0.00
2022-09-29T02:20:37.563Z,0.00
2022-09-29T02:21:37.586Z,0.00
2022-09-29T02:22:37.530Z,0.00
2022-09-29T02:23:37.522Z,0.00
2022-09-29T02:24:37.518Z,0.00
2022-09-29T02:25:37.508Z,0.00
2022-09-29T02:26:37.530Z,0.00
2022-09-29T02:27:37.483Z,0.00
2022-09-29T02:28:37.475Z,0.00
2022-09-29T02:29:37.459Z,0.00
2022-09-29T02:30:37.449Z,0.00
2022-09-29T02:31:37.521Z,0.00
2022-09-29T02:32:37.464Z,0.00
2022-09-29T02:33:37.399Z,0.00
2022-09-29T02:34:37.408Z,0.00
2022-09-29T02:35:37.410Z,0.00
2022-09-29T02:36:37.387Z,0.00
2022-09-29T02:37:37.409Z,0.00
2022-09-29T02:38:37.347Z,0.00
2022-09-29T02:39:37.350Z,0.00
2022-09-29T02:40:37.376Z,0.00
2022-09-29T02:41:37.331Z,0.00
2022-09-29T02:42:37.361Z,0.00
2022-09-29T02:43:37.314Z,0.00
2022-09-29T02:44:37.278Z,0.00
2022-09-29T02:45:37.344Z,0.00
2022-09-29T02:46:37.247Z,0.00
2022-09-29T02:47:37.269Z,0.00
2022-09-29T02:48:37.227Z,0.00
2022-09-29T02:49:37.235Z,0.00
2022-09-29T02:50:37.233Z,0.00
2022-09-29T02:51:37.215Z,0.00
2022-09-29T02:52:37.237Z,0.00
2022-09-29T02:53:37.189Z,0.00
2022-09-29T02:54:37.166Z,0.00
2022-09-29T02:55:37.164Z,0.00
2022-09-29T02:56:37.146Z,0.00
2022-09-29T02:57:37.172Z,0.00
2022-09-29T02:58:37.130Z,0.00
2022-09-29T02:59:37.128Z,0.00
2022-09-29T03:00:37.202Z,0.00
2022-09-29T03:01:37.088Z,0.00
2022-09-29T03:02:37.122Z,0.00
2022-09-29T03:03:37.111Z,0.00
2022-09-29T03:04:37.074Z,0.00
2022-09-29T03:05:37.052Z,0.00
2022-09-29T03:06:37.044Z,0.00
2022-09-29T03:07:37.088Z,0.00
2022-09-29T03:08:37.029Z,0.00
2022-09-29T03:09:37.005Z,0.00
2022-09-29T03:10:36.983Z,0.00
2022-09-29T03:11:36.978Z,0.00
2022-09-29T03:12:37.028Z,0.00
2022-09-29T03:13:36.968Z,0.00
2022-09-29T03:14:36.952Z,0.00
2022-09-29T03:15:36.951Z,0.00
2022-09-29T03:16:37.016Z,0.00
2022-09-29T03:17:36.938Z,0.00
2022-09-29T03:18:36.897Z,0.00
2022-09-29T03:19:36.875Z,0.00
2022-09-29T03:20:36.887Z,0.00
2022-09-29T03:21:36.898Z,0.00
2022-09-29T03:22:36.903Z,0.00
2022-09-29T03:23:36.852Z,0.00
2022-09-29T03:24:36.850Z,0.00
2022-09-29T03:25:36.825Z,0.00
2022-09-29T03:26:36.811Z,0.00
2022-09-29T03:27:36.839Z,0.00
2022-09-29T03:28:36.788Z,0.00
2022-09-29T03:29:36.779Z,0.00
2022-09-29T03:30:36.778Z,0.00
2022-09-29T03:31:36.806Z,0.00
2022-09-29T03:32:36.806Z,0.00
2022-09-29T03:33:36.747Z,0.00
2022-09-29T03:34:36.732Z,0.00
2022-09-29T03:35:36.729Z,0.00
2022-09-29T03:36:36.712Z,0.00
2022-09-29T03:37:36.735Z,0.00
2022-09-29T03:38:36.696Z,0.00
2022-09-29T03:39:36.668Z,0.00
2022-09-29T03:40:36.708Z,0.00
2022-09-29T03:41:36.670Z,0.00
2022-09-29T03:42:36.685Z,0.00
2022-09-29T03:43:36.628Z,0.00
2022-09-29T03:44:36.613Z,0.00
2022-09-29T03:45:36.643Z,0.00
2022-09-29T03:46:36.587Z,0.00
2022-09-29T03:47:36.607Z,0.00
2022-09-29T03:48:36.562Z,0.00
2022-09-29T03:49:36.544Z,0.00
2022-09-29T03:50:36.543Z,0.00
2022-09-29T03:51:36.538Z,0.00
2022-09-29T03:52:36.545Z,0.00
2022-09-29T03:53:36.518Z,0.00
2022-09-29T03:54:36.512Z,0.00
2022-09-29T03:55:36.488Z,0.00
2022-09-29T03:56:36.488Z,0.00
2022-09-29T03:57:36.513Z,0.00
2022-09-29T03:58:36.473Z,0.00
2022-09-29T03:59:36.446Z,0.00
2022-09-29T04:00:36.480Z,0.00
2022-09-29T04:01:36.488Z,0.00
2022-09-29T04:02:36.471Z,0.00
2022-09-29T04:03:36.410Z,0.00
2022-09-29T04:04:36.385Z,0.00
2022-09-29T04:05:36.382Z,0.00
2022-09-29T04:06:36.374Z,0.00
2022-09-29T04:07:36.393Z,0.00
2022-09-29T04:08:36.376Z,0.00
2022-09-29T04:09:36.328Z,0.00
2022-09-29T04:10:36.321Z,0.00
2022-09-29T04:11:36.308Z,0.00
2022-09-29T04:12:36.348Z,0.00
2022-09-29T04:13:36.286Z,0.00
2022-09-29T04:14:36.263Z,0.00
2022-09-29T04:15:36.268Z,0.00
2022-09-29T04:16:36.292Z,0.00
2022-09-29T04:17:36.277Z,0.00
2022-09-29T04:18:36.228Z,0.00
2022-09-29T04:19:36.206Z,0.00
2022-09-29T04:20:36.201Z,0.00
2022-09-29T04:21:36.209Z,0.00
2022-09-29T04:22:36.221Z,0.00
2022-09-29T04:23:36.172Z,0.00
2022-09-29T04:24:36.176Z,0.00
2022-09-29T04:25:36.154Z,0.00
2022-09-29T04:26:36.152Z,0.00
2022-09-29T04:27:36.186Z,0.00
2022-09-29T04:28:36.106Z,0.00
2022-09-29T04:29:36.118Z,4.00
2022-09-29T04:30:36.083Z,4.00
2022-09-29T04:31:36.148Z,0.00
2022-09-29T04:32:36.111Z,4.00
2022-09-29T04:33:36.059Z,4.00
2022-09-29T04:34:36.057Z,4.00
2022-09-29T04:35:37.078Z,8.00
2022-09-29T04:36:36.028Z,8.00
2022-09-29T04:37:36.074Z,8.00
2022-09-29T04:38:36.006Z,8.00
2022-09-29T04:39:35.987Z,12.00
2022-09-29T04:40:36.022Z,16.00
2022-09-29T04:41:35.975Z,20.00
2022-09-29T04:42:35.996Z,20.00
2022-09-29T04:43:35.950Z,28.00
2022-09-29T04:44:35.937Z,32.00
2022-09-29T04:45:35.962Z,36.00
2022-09-29T04:46:35.932Z,40.00
2022-09-29T04:47:35.944Z,44.00
2022-09-29T04:48:36.398Z,56.00
2022-09-29T04:49:35.857Z,64.00
2022-09-29T04:50:35.840Z,76.00
2022-09-29T04:51:35.838Z,88.00
2022-09-29T04:52:35.888Z,104.00
2022-09-29T04:53:35.880Z,120.00
2022-09-29T04:54:38.152Z,136.00
2022-09-29T04:55:35.809Z,156.00
2022-09-29T04:56:35.803Z,176.00
2022-09-29T04:57:35.836Z,196.00
2022-09-29T04:58:35.781Z,220.00
2022-09-29T04:59:35.766Z,248.00
2022-09-29T05:00:35.829Z,276.00
2022-09-29T05:01:35.727Z,308.00
2022-09-29T05:02:35.846Z,340.00
2022-09-29T05:03:35.733Z,376.00
2022-09-29T05:04:35.702Z,416.00
2022-09-29T05:05:35.698Z,456.00
2022-09-29T05:06:35.689Z,492.00
2022-09-29T05:07:35.722Z,532.00
2022-09-29T05:08:35.662Z,568.00
2022-09-29T05:09:35.746Z,604.00
2022-09-29T05:10:35.640Z,640.00
2022-09-29T05:11:35.628Z,680.00
2022-09-29T05:12:35.649Z,716.00
2022-09-29T05:13:35.605Z,760.00
2022-09-29T05:14:35.596Z,816.00
2022-09-29T05:15:35.574Z,876.00
2022-09-29T05:16:35.626Z,920.00
2022-09-29T05:17:35.592Z,988.00
2022-09-29T05:18:35.536Z,1088.00
2022-09-29T05:19:35.525Z,1168.00
2022-09-29T05:20:42.830Z,1184.00
2022-09-29T05:21:36.499Z,1268.00
2022-09-29T05:22:35.550Z,1360.00
2022-09-29T05:23:35.593Z,1368.00
2022-09-29T05:24:35.483Z,1364.00
2022-09-29T05:25:35.492Z,1432.00
2022-09-29T05:26:35.467Z,1508.00
2022-09-29T05:27:35.498Z,1564.00
2022-09-29T05:28:35.441Z,1612.00
2022-09-29T05:29:35.425Z,1720.00
2022-09-29T05:30:35.411Z,1768.00
2022-09-29T05:31:35.426Z,1868.00
2022-09-29T05:32:35.437Z,1936.00
2022-09-29T05:33:35.387Z,1996.00
2022-09-29T05:34:35.352Z,2068.00
2022-09-29T05:35:35.367Z,2164.00
2022-09-29T05:36:35.345Z,2252.00
2022-09-29T05:37:35.356Z,2360.00
2022-09-29T05:38:35.374Z,2432.00
2022-09-29T05:39:35.351Z,2496.00
2022-09-29T05:40:35.321Z,2564.00
2022-09-29T05:41:35.308Z,2644.00
2022-09-29T05:42:35.284Z,2728.00
2022-09-29T05:43:35.313Z,2816.00
2022-09-29T05:44:35.255Z,2900.00
2022-09-29T05:45:35.313Z,2968.00
2022-09-29T05:46:35.243Z,3076.00
2022-09-29T05:47:35.224Z,3208.00
2022-09-29T05:48:35.263Z,3356.00
2022-09-29T05:49:35.199Z,3512.00
2022-09-29T05:50:35.181Z,3660.00
2022-09-29T05:51:35.158Z,3812.00
2022-09-29T05:52:35.164Z,3944.00
2022-09-29T05:53:35.199Z,4092.00
2022-09-29T05:54:35.136Z,4252.00
2022-09-29T05:55:35.155Z,4408.00
2022-09-29T05:56:35.120Z,4572.00
2022-09-29T05:57:35.108Z,4732.00
2022-09-29T05:58:35.137Z,4876.00
2022-09-29T05:59:35.082Z,5012.00
2022-09-29T06:00:35.083Z,5140.00
2022-09-29T06:01:35.078Z,5276.00
2022-09-29T06:02:35.104Z,5396.00
2022-09-29T06:03:35.097Z,5484.00
2022-09-29T06:04:39.946Z,5544.00
2022-09-29T06:05:36.031Z,5576.00
2022-09-29T06:06:37.891Z,5620.00
2022-09-29T06:07:35.004Z,5708.00
2022-09-29T06:08:35.033Z,5840.00
2022-09-29T06:09:34.963Z,6048.00
2022-09-29T06:10:34.961Z,6336.00
2022-09-29T06:11:34.964Z,6648.00
2022-09-29T06:12:34.940Z,6960.00
2022-09-29T06:13:34.971Z,7152.00
2022-09-29T06:14:34.922Z,7240.00
2022-09-29T06:15:34.897Z,7312.00
2022-09-29T06:16:34.990Z,7388.00
2022-09-29T06:17:34.882Z,7516.00
2022-09-29T06:18:34.913Z,7664.00
2022-09-29T06:19:34.861Z,7768.00
2022-09-29T06:20:34.923Z,7884.00
2022-09-29T06:21:34.822Z,7964.00
2022-09-29T06:22:34.821Z,8020.00
2022-09-29T06:23:34.859Z,8096.00
2022-09-29T06:24:34.807Z,8236.00
2022-09-29T06:25:34.848Z,8464.00
2022-09-29T06:26:34.781Z,8748.00
2022-09-29T06:27:34.791Z,9052.00
2022-09-29T06:28:34.822Z,9272.00
2022-09-29T06:29:34.746Z,9364.00
2022-09-29T06:30:34.745Z,9392.00
2022-09-29T06:31:34.770Z,9468.00
2022-09-29T06:32:34.726Z,9556.00
2022-09-29T06:33:34.763Z,9552.00
2022-09-29T06:34:34.716Z,9552.00
2022-09-29T06:35:34.695Z,9540.00
2022-09-29T06:36:34.672Z,9580.00
2022-09-29T06:37:34.648Z,9668.00
2022-09-29T06:38:34.679Z,9752.00
2022-09-29T06:39:34.649Z,9840.00
2022-09-29T06:40:34.702Z,9936.00
2022-09-29T06:41:34.623Z,10032.00
2022-09-29T06:42:34.608Z,10040.00
2022-09-29T06:43:34.641Z,9976.00
2022-09-29T06:44:34.573Z,9880.00
2022-09-29T06:45:34.599Z,9920.00
2022-09-29T06:46:34.570Z,10032.00
2022-09-29T06:47:34.543Z,10172.00
2022-09-29T06:48:34.589Z,10360.00
2022-09-29T06:49:34.539Z,10492.00
2022-09-29T06:50:34.513Z,10676.00
2022-09-29T06:51:44.658Z,10908.00
2022-09-29T06:52:35.496Z,11048.00
2022-09-29T06:53:38.332Z,11148.00
2022-09-29T06:54:34.462Z,11200.00
2022-09-29T06:55:34.456Z,11296.00
2022-09-29T06:56:34.583Z,11484.00
2022-09-29T06:57:34.433Z,11796.00
2022-09-29T06:58:34.456Z,12180.00
2022-09-29T06:59:34.396Z,12564.00
2022-09-29T07:00:34.396Z,12924.00
2022-09-29T07:01:34.449Z,13192.00
2022-09-29T07:02:34.431Z,13404.00
2022-09-29T07:03:34.401Z,13520.00
2022-09-29T07:04:34.351Z,13440.00
2022-09-29T07:05:34.352Z,13272.00
2022-09-29T07:06:34.343Z,13400.00
2022-09-29T07:07:34.339Z,13840.00
2022-09-29T07:08:34.339Z,14296.00
2022-09-29T07:09:34.306Z,14704.00
2022-09-29T07:10:34.299Z,15004.00
2022-09-29T07:11:34.264Z,15148.00
2022-09-29T07:12:34.268Z,15092.00
2022-09-29T07:13:34.315Z,14908.00
2022-09-29T07:14:34.239Z,14792.00
2022-09-29T07:15:34.248Z,14800.00
2022-09-29T07:16:34.298Z,14864.00
2022-09-29T07:17:34.207Z,14984.00
2022-09-29T07:18:34.249Z,15096.00
2022-09-29T07:19:34.197Z,15088.00
2022-09-29T07:20:34.164Z,15068.00
2022-09-29T07:21:34.169Z,15088.00
2022-09-29T07:22:34.148Z,15068.00
2022-09-29T07:23:34.181Z,14724.00
2022-09-29T07:24:34.109Z,14336.00
2022-09-29T07:25:51.036Z,14072.00
2022-09-29T07:26:35.086Z,13688.00
2022-09-29T07:27:34.090Z,13396.00
2022-09-29T07:28:34.109Z,14324.00
2022-09-29T07:29:34.067Z,16280.00
2022-09-29T07:30:39.833Z,23648.00
2022-09-29T07:31:47.431Z,31296.00
2022-09-29T07:32:35.047Z,29984.00
2022-09-29T07:33:38.858Z,22656.00
2022-09-29T07:34:34.988Z,21760.00
2022-09-29T07:35:38.998Z,19840.00
2022-09-29T07:36:34.979Z,23008.00
2022-09-29T07:37:33.960Z,24672.00
2022-09-29T07:38:34.005Z,22656.00
2022-09-29T07:39:33.944Z,30880.00
2022-09-29T07:40:34.027Z,24736.00
2022-09-29T07:41:33.936Z,37280.00
2022-09-29T07:42:33.928Z,38080.00
2022-09-29T07:43:33.980Z,36928.00
2022-09-29T07:44:33.890Z,35616.00
2022-09-29T07:45:33.934Z,33344.00
2022-09-29T07:46:33.913Z,33792.00
2022-09-29T07:47:33.901Z,33600.00
2022-09-29T07:48:33.902Z,33440.00
2022-09-29T07:49:33.864Z,34944.00
2022-09-29T07:50:33.840Z,35104.00
2022-09-29T07:51:33.827Z,35072.00
2022-09-29T07:52:33.804Z,37376.00
2022-09-29T07:53:33.869Z,41568.00
2022-09-29T07:54:33.801Z,41824.00
2022-09-29T07:55:33.785Z,41888.00
2022-09-29T07:56:33.776Z,41920.00
2022-09-29T07:57:33.748Z,41472.00
2022-09-29T07:58:33.762Z,40704.00
2022-09-29T07:59:33.734Z,40256.00
2022-09-29T08:00:33.727Z,39808.00
2022-09-29T08:01:33.758Z,41248.00
2022-09-29T08:02:33.775Z,42464.00
2022-09-29T08:03:33.733Z,43968.00
2022-09-29T08:04:33.664Z,44928.00
2022-09-29T08:05:33.686Z,45536.00
2022-09-29T08:06:33.664Z,47072.00
2022-09-29T08:07:33.652Z,45760.00
2022-09-29T08:08:33.674Z,46176.00
2022-09-29T08:09:40.910Z,48416.00
2022-09-29T08:10:46.765Z,41696.00
2022-09-29T08:11:34.596Z,50560.00
2022-09-29T08:12:42.811Z,45472.00
2022-09-29T08:13:34.631Z,31328.00
2022-09-29T08:14:33.555Z,50048.00
2022-09-29T08:15:33.547Z,32032.00
2022-09-29T08:16:33.584Z,35680.00
2022-09-29T08:17:33.542Z,53728.00
2022-09-29T08:18:33.571Z,55072.00
2022-09-29T08:19:33.530Z,36608.00
2022-09-29T08:20:33.488Z,34816.00
2022-09-29T08:21:33.497Z,46848.00
2022-09-29T08:22:33.480Z,29408.00
2022-09-29T08:23:33.498Z,23072.00
2022-09-29T08:24:33.423Z,19872.00
2022-09-29T08:25:33.440Z,17564.00
2022-09-29T08:26:41.761Z,18784.00
2022-09-29T08:27:37.044Z,22176.00
2022-09-29T08:28:34.455Z,39456.00
2022-09-29T08:29:44.765Z,27904.00
2022-09-29T08:30:34.412Z,18084.00
2022-09-29T08:31:33.387Z,43104.00
2022-09-29T08:32:33.386Z,37056.00
2022-09-29T08:33:33.384Z,31968.00
2022-09-29T08:34:33.336Z,19808.00
2022-09-29T08:35:33.325Z,35232.00
2022-09-29T08:36:33.316Z,27936.00
2022-09-29T08:37:35.188Z,36032.00
2022-09-29T08:38:33.335Z,40064.00
2022-09-29T08:39:33.264Z,48032.00
2022-09-29T08:40:33.321Z,45792.00
2022-09-29T08:41:33.231Z,44512.00
2022-09-29T08:42:46.203Z,43392.00
2022-09-29T08:43:35.472Z,18496.00
2022-09-29T08:44:38.477Z,17116.00
2022-09-29T08:45:34.268Z,28896.00
2022-09-29T08:46:36.210Z,17392.00
2022-09-29T08:47:45.306Z,19264.00
2022-09-29T08:48:34.241Z,29888.00
2022-09-29T08:49:33.642Z,28032.00
2022-09-29T08:50:33.162Z,29376.00
2022-09-29T08:51:41.841Z,31424.00
2022-09-29T08:52:45.671Z,34400.00
2022-09-29T08:53:34.178Z,37088.00
2022-09-29T08:54:39.203Z,39520.00
2022-09-29T08:55:34.093Z,50912.00
2022-09-29T08:56:33.100Z,53088.00
2022-09-29T08:57:33.064Z,55424.00
2022-09-29T08:58:33.096Z,53600.00
2022-09-29T08:59:33.056Z,52448.00
2022-09-29T09:00:33.045Z,52736.00
2022-09-29T09:01:33.058Z,52992.00
2022-09-29T09:02:33.068Z,51712.00
2022-09-29T09:03:33.074Z,51392.00
2022-09-29T09:04:33.015Z,54208.00
2022-09-29T09:05:33.015Z,57312.00
2022-09-29T09:06:32.948Z,60576.00
2022-09-29T09:07:32.945Z,64608.00
2022-09-29T09:08:33.039Z,67680.00
2022-09-29T09:09:32.944Z,72576.00
2022-09-29T09:10:32.982Z,53344.00
2022-09-29T09:11:32.940Z,66176.00
2022-09-29T09:12:32.915Z,70048.00
2022-09-29T09:13:32.931Z,62272.00
2022-09-29T09:14:32.890Z,57600.00
2022-09-29T09:15:32.861Z,65728.00
2022-09-29T09:16:32.935Z,48960.00
2022-09-29T09:17:32.855Z,21376.00
2022-09-29T09:18:32.901Z,20320.00
2022-09-29T09:19:32.830Z,20160.00
2022-09-29T09:20:32.805Z,62336.00
2022-09-29T09:21:32.791Z,60064.00
2022-09-29T09:22:32.851Z,59232.00
2022-09-29T09:23:32.820Z,54368.00
2022-09-29T09:24:32.770Z,62784.00
2022-09-29T09:25:32.766Z,24448.00
2022-09-29T09:26:32.775Z,23616.00
2022-09-29T09:27:32.745Z,25088.00
2022-09-29T09:28:32.791Z,57312.00
2022-09-29T09:29:37.257Z,52896.00
2022-09-29T09:30:33.744Z,79392.00
2022-09-29T09:31:32.692Z,77056.00
2022-09-29T09:32:32.686Z,79552.00
2022-09-29T09:33:32.728Z,86144.00
2022-09-29T09:34:42.765Z,87936.00
2022-09-29T09:35:33.648Z,92544.00
2022-09-29T09:36:34.559Z,90496.00
2022-09-29T09:37:32.612Z,86752.00
2022-09-29T09:38:32.671Z,33376.00
2022-09-29T09:39:32.611Z,36736.00
2022-09-29T09:40:32.590Z,74336.00
2022-09-29T09:41:36.003Z,72864.00
2022-09-29T09:42:32.578Z,83104.00
2022-09-29T09:43:32.628Z,78080.00
2022-09-29T09:44:32.549Z,79296.00
2022-09-29T09:45:32.626Z,81664.00
2022-09-29T09:46:34.782Z,79776.00
2022-09-29T09:47:32.506Z,50400.00
2022-09-29T09:48:32.578Z,20512.00
2022-09-29T09:49:32.473Z,19744.00
2022-09-29T09:50:32.492Z,15824.00
2022-09-29T09:51:32.496Z,12120.00
2022-09-29T09:52:32.476Z,14700.00
2022-09-29T09:53:32.509Z,13480.00
2022-09-29T09:54:32.456Z,14620.00
2022-09-29T09:55:32.437Z,20224.00
2022-09-29T09:56:32.412Z,16812.00
2022-09-29T09:57:32.403Z,67424.00
2022-09-29T09:58:32.445Z,17536.00
2022-09-29T09:59:32.386Z,16216.00
2022-09-29T10:00:32.367Z,15556.00
2022-09-29T10:01:32.456Z,15016.00
2022-09-29T10:02:32.433Z,14620.00
2022-09-29T10:03:32.385Z,14244.00
2022-09-29T10:04:32.331Z,14208.00
2022-09-29T10:05:32.311Z,14688.00
2022-09-29T10:06:32.306Z,15436.00
2022-09-29T10:07:32.271Z,16492.00
2022-09-29T10:08:32.317Z,17824.00
2022-09-29T10:09:32.328Z,19104.00
2022-09-29T10:10:32.263Z,19936.00
2022-09-29T10:11:32.240Z,19968.00
2022-09-29T10:12:32.266Z,19584.00
2022-09-29T10:13:32.281Z,19040.00
2022-09-29T10:14:32.211Z,18560.00
2022-09-29T10:15:32.200Z,18048.00
2022-09-29T10:16:32.236Z,17472.00
2022-09-29T10:17:32.192Z,17096.00
2022-09-29T10:18:32.201Z,17504.00
2022-09-29T10:19:32.166Z,18048.00
2022-09-29T10:20:32.154Z,18432.00
2022-09-29T10:21:32.133Z,18240.00
2022-09-29T10:22:32.123Z,17308.00
2022-09-29T10:23:32.161Z,17408.00
2022-09-29T10:24:32.107Z,16852.00
2022-09-29T10:25:32.095Z,16132.00
2022-09-29T10:26:32.082Z,20800.00
2022-09-29T10:27:32.070Z,15576.00
2022-09-29T10:28:32.078Z,16388.00
2022-09-29T10:29:32.081Z,16732.00
2022-09-29T10:30:32.047Z,16836.00
2022-09-29T10:31:32.024Z,17036.00
2022-09-29T10:32:32.024Z,17288.00
2022-09-29T10:33:32.034Z,18084.00
2022-09-29T10:34:32.025Z,19488.00
2022-09-29T10:35:32.003Z,20416.00
2022-09-29T10:36:31.956Z,20288.00
2022-09-29T10:37:31.937Z,19936.00
2022-09-29T10:38:31.983Z,19552.00
2022-09-29T10:39:31.919Z,19360.00
2022-09-29T10:40:31.915Z,19040.00
2022-09-29T10:41:31.901Z,18720.00
2022-09-29T10:42:31.898Z,19136.00
2022-09-29T10:43:31.932Z,20288.00
2022-09-29T10:44:31.875Z,22112.00
2022-09-29T10:45:31.883Z,24992.00
2022-09-29T10:46:31.860Z,31200.00
2022-09-29T10:47:31.842Z,29728.00
2022-09-29T10:48:31.894Z,29120.00
2022-09-29T10:49:31.835Z,28416.00
2022-09-29T10:50:35.012Z,27264.00
2022-09-29T10:51:32.800Z,26976.00
2022-09-29T10:52:31.784Z,26752.00
2022-09-29T10:53:31.849Z,25440.00
2022-09-29T10:54:31.763Z,24576.00
2022-09-29T10:55:31.737Z,24608.00
2022-09-29T10:56:31.754Z,25824.00
2022-09-29T10:57:31.725Z,27296.00
2022-09-29T10:58:45.083Z,28512.00
2022-09-29T10:59:32.709Z,28992.00
2022-09-29T11:00:31.703Z,31040.00
2022-09-29T11:01:31.719Z,33184.00
2022-09-29T11:02:31.735Z,30208.00
2022-09-29T11:03:31.700Z,29440.00
2022-09-29T11:04:31.648Z,28960.00
2022-09-29T11:05:31.651Z,28800.00
2022-09-29T11:06:31.655Z,28672.00
2022-09-29T11:07:31.604Z,28384.00
2022-09-29T11:08:31.631Z,28320.00
2022-09-29T11:09:31.645Z,28160.00
2022-09-29T11:10:31.594Z,27968.00
2022-09-29T11:11:31.587Z,28544.00
2022-09-29T11:12:31.550Z,29248.00
2022-09-29T11:13:31.592Z,30112.00
2022-09-29T11:14:31.580Z,30624.00
2022-09-29T11:15:31.527Z,30592.00
2022-09-29T11:16:31.547Z,30528.00
2022-09-29T11:17:31.495Z,30400.00
2022-09-29T11:18:31.547Z,30560.00
2022-09-29T11:19:31.480Z,33888.00
2022-09-29T11:20:31.455Z,32288.00
2022-09-29T11:21:31.468Z,33472.00
2022-09-29T11:22:31.445Z,32256.00
2022-09-29T11:23:31.479Z,30624.00
2022-09-29T11:24:31.425Z,29408.00
2022-09-29T11:25:31.428Z,28064.00
2022-09-29T11:26:31.403Z,26400.00
2022-09-29T11:27:31.400Z,25472.00
2022-09-29T11:28:31.416Z,24864.00
2022-09-29T11:29:31.377Z,24768.00
2022-09-29T11:30:31.420Z,24544.00
2022-09-29T11:31:31.345Z,23840.00
2022-09-29T11:32:31.347Z,23200.00
2022-09-29T11:33:31.356Z,23328.00
2022-09-29T11:34:31.315Z,23712.00
2022-09-29T11:35:31.322Z,24160.00
2022-09-29T11:36:31.295Z,24576.00
2022-09-29T11:37:33.043Z,24640.00
2022-09-29T11:38:31.287Z,24288.00
2022-09-29T11:39:31.234Z,23744.00
2022-09-29T11:40:31.246Z,23328.00
2022-09-29T11:41:31.225Z,22976.00
2022-09-29T11:42:31.228Z,22464.00
2022-09-29T11:43:31.248Z,22016.00
2022-09-29T11:44:31.206Z,21792.00
2022-09-29T11:45:31.185Z,21728.00
2022-09-29T11:46:31.191Z,21664.00
2022-09-29T11:47:31.150Z,21440.00
2022-09-29T11:48:31.148Z,21024.00
2022-09-29T11:49:31.197Z,20640.00
2022-09-29T11:50:31.135Z,20224.00
2022-09-29T11:51:31.125Z,19904.00
2022-09-29T11:52:31.105Z,19840.00
2022-09-29T11:53:31.119Z,19936.00
2022-09-29T11:54:31.142Z,20192.00
2022-09-29T11:55:31.059Z,20672.00
2022-09-29T11:56:31.068Z,21248.00
2022-09-29T11:57:31.069Z,21664.00
2022-09-29T11:58:31.062Z,22016.00
2022-09-29T11:59:31.080Z,22272.00
2022-09-29T12:00:31.040Z,22432.00
2022-09-29T12:01:31.012Z,22400.00
2022-09-29T12:02:31.056Z,22336.00
2022-09-29T12:03:31.053Z,22304.00
2022-09-29T12:04:31.003Z,22336.00
2022-09-29T12:05:30.966Z,22464.00
2022-09-29T12:06:30.962Z,22528.00
2022-09-29T12:07:30.939Z,22592.00
2022-09-29T12:08:30.916Z,22720.00
2022-09-29T12:09:30.983Z,22720.00
2022-09-29T12:10:30.897Z,23104.00
2022-09-29T12:11:50.966Z,23264.00
2022-09-29T12:12:31.866Z,23168.00
2022-09-29T12:13:30.851Z,22784.00
2022-09-29T12:14:30.925Z,22240.00
2022-09-29T12:15:30.838Z,22048.00
2022-09-29T12:16:30.851Z,21984.00
2022-09-29T12:17:30.828Z,22048.00
2022-09-29T12:18:30.812Z,22144.00
2022-09-29T12:19:30.837Z,22368.00
2022-09-29T12:20:30.781Z,22912.00
2022-09-29T12:21:30.857Z,23904.00
2022-09-29T12:22:33.215Z,25088.00